Time;durP1;ratioP1;P1;durP2;ratioP2;P2;SDS_P1;SDS_P2;PMS_P1;PMS_P2;Temp;Humidity;BMP_temperature;BMP_pressure;BME280_temperature;BME280_humidity;BME280_pressure;Samples;Min_cycle;Max_cycle;Signal;HPM_P1;HPM_P2
2022/05/15 00:02:34;;;;;;;14.43;4.65;;;7.30;90.50;;;;;;5012895;28;20029;-83
2022/05/15 00:05:00;;;;;;;15.57;5.05;;;7.30;90.70;;;;;;5000521;28;20393;-83
2022/05/15 00:07:26;;;;;;;19.83;5.60;;;7.30;90.80;;;;;;5012544;28;20034;-82
2022/05/15 00:09:51;;;;;;;13.60;4.88;;;7.20;90.60;;;;;;5010952;28;20034;-83
2022/05/15 00:12:17;;;;;;;15.40;5.18;;;7.30;90.80;;;;;;4998819;28;20121;-82
2022/05/15 00:14:43;;;;;;;19.50;5.20;;;7.20;91.00;;;;;;4992042;28;20063;-82
2022/05/15 00:17:09;;;;;;;15.40;4.93;;;7.10;91.00;;;;;;5002852;28;20025;-82
2022/05/15 00:19:35;;;;;;;20.45;5.90;;;7.10;91.10;;;;;;5004787;28;20104;-82
2022/05/15 00:22:00;;;;;;;18.50;5.80;;;7.00;91.00;;;;;;4997916;28;20025;-82
2022/05/15 00:24:28;;;;;;;19.70;5.90;;;7.10;91.20;;;;;;4992444;28;20030;-82
2022/05/15 00:26:54;;;;;;;22.55;5.95;;;7.00;91.10;;;;;;4992751;28;20041;-82
2022/05/15 00:29:20;;;;;;;20.13;6.18;;;7.00;91.50;;;;;;4996833;28;20113;-82
2022/05/15 00:31:46;;;;;;;22.90;5.22;;;6.90;91.80;;;;;;5008052;28;20177;-82
2022/05/15 00:34:11;;;;;;;20.70;5.80;;;7.00;92.00;;;;;;5010598;28;20125;-83
2022/05/15 00:36:37;;;;;;;14.32;5.43;;;6.90;92.00;;;;;;4997839;28;20116;-82
2022/05/15 00:39:05;;;;;;;15.25;5.30;;;6.80;91.90;;;;;;5021247;28;20496;-83
2022/05/15 00:41:31;;;;;;;16.20;4.68;;;6.80;92.00;;;;;;5014785;28;20029;-82
2022/05/15 00:43:58;;;;;;;19.23;5.53;;;6.80;92.00;;;;;;4999864;28;20085;-82
2022/05/15 00:46:30;;;;;;;19.13;5.70;;;6.70;92.10;;;;;;5016533;28;20112;-82
2022/05/15 00:48:57;;;;;;;20.27;5.65;;;6.80;92.60;;;;;;4999901;28;20045;-82
2022/05/15 00:51:38;;;;;;;17.52;4.85;;;6.70;92.80;;;;;;5006344;28;20048;-83
2022/05/15 00:54:12;;;;;;;13.97;5.13;;;6.60;92.50;;;;;;5010059;28;20061;-83
2022/05/15 00:56:42;;;;;;;13.70;4.78;;;6.50;92.40;;;;;;5007812;28;20085;-82
2022/05/15 00:59:13;;;;;;;14.88;5.90;;;6.50;92.20;;;;;;4999915;28;20464;-83
2022/05/15 01:01:38;;;;;;;24.00;5.78;;;6.60;92.60;;;;;;5012390;28;20022;-82
2022/05/15 01:04:05;;;;;;;20.58;5.72;;;6.40;92.40;;;;;;5010527;28;20108;-84
2022/05/15 01:06:31;;;;;;;16.85;5.20;;;6.40;92.40;;;;;;4995550;28;20026;-82
2022/05/15 01:08:56;;;;;;;13.85;4.75;;;6.40;92.30;;;;;;5011002;28;20033;-83
2022/05/15 01:11:24;;;;;;;24.50;5.35;;;6.30;92.40;;;;;;5009305;28;20026;-83
2022/05/15 01:13:52;;;;;;;17.85;5.35;;;6.20;92.30;;;;;;5008703;28;20109;-82
2022/05/15 01:16:21;;;;;;;16.58;5.28;;;6.30;92.30;;;;;;4988089;28;20033;-83
2022/05/15 01:18:47;;;;;;;14.48;4.70;;;6.20;92.60;;;;;;5013868;28;20088;-83
2022/05/15 01:21:40;;;;;;;21.13;5.50;;;6.20;92.70;;;;;;4993831;28;20052;-83
2022/05/15 01:24:07;;;;;;;13.45;4.78;;;6.10;92.60;;;;;;4992122;28;20026;-82
2022/05/15 01:26:37;;;;;;;13.48;4.65;;;6.10;92.30;;;;;;5008337;28;20029;-83
2022/05/15 01:29:05;;;;;;;15.05;5.05;;;6.00;92.10;;;;;;5018676;28;20406;-82
2022/05/15 01:31:31;;;;;;;16.42;4.60;;;6.00;92.10;;;;;;5012263;28;20396;-83
2022/05/15 01:33:59;;;;;;;16.10;5.43;;;6.00;92.00;;;;;;5014449;28;20469;-82
2022/05/15 01:36:25;;;;;;;14.55;4.97;;;5.90;92.10;;;;;;4997069;28;20445;-83
2022/05/15 01:38:52;;;;;;;13.07;4.70;;;5.90;91.80;;;;;;5014079;28;20041;-83
2022/05/15 01:41:17;;;;;;;15.55;4.70;;;5.90;91.90;;;;;;5003046;28;20033;-83
2022/05/15 01:43:44;;;;;;;11.25;5.53;;;5.90;92.20;;;;;;5000657;28;20030;-83
2022/05/15 01:46:10;;;;;;;19.25;5.32;;;5.80;92.20;;;;;;5013755;28;20056;-83
2022/05/15 01:48:37;;;;;;;19.70;5.38;;;5.90;92.30;;;;;;5008312;28;20050;-84
2022/05/15 01:51:03;;;;;;;16.77;5.32;;;5.90;92.30;;;;;;5021083;28;20038;-83
2022/05/15 01:53:29;;;;;;;19.70;5.40;;;5.80;92.50;;;;;;4991482;28;20104;-83
2022/05/15 01:55:54;;;;;;;15.48;5.68;;;5.80;92.50;;;;;;5002621;28;20453;-83
2022/05/15 01:58:20;;;;;;;18.92;5.20;;;5.80;92.50;;;;;;5000689;28;20037;-83
2022/05/15 02:00:45;;;;;;;16.83;5.40;;;5.80;92.60;;;;;;4988867;28;20034;-83
2022/05/15 02:03:11;;;;;;;20.45;6.15;;;5.70;92.50;;;;;;4986191;28;20030;-83
2022/05/15 02:05:37;;;;;;;18.42;5.57;;;5.70;92.60;;;;;;4991159;28;20030;-83
2022/05/15 02:08:04;;;;;;;16.42;5.68;;;5.80;92.80;;;;;;4976690;28;20153;-83
2022/05/15 02:10:29;;;;;;;16.83;5.55;;;5.70;92.80;;;;;;4990524;28;20093;-83
2022/05/15 02:12:55;;;;;;;21.77;5.72;;;5.70;92.90;;;;;;5007273;28;20037;-83
2022/05/15 02:15:21;;;;;;;17.33;6.32;;;5.70;92.90;;;;;;5007849;28;20037;-83
2022/05/15 02:17:47;;;;;;;15.70;6.22;;;5.60;92.90;;;;;;4993737;28;20060;-83
2022/05/15 02:20:13;;;;;;;17.23;6.70;;;5.60;92.90;;;;;;5013654;28;20026;-83
2022/05/15 02:22:40;;;;;;;15.93;6.30;;;5.60;92.90;;;;;;4997263;28;20037;-83
2022/05/15 02:25:08;;;;;;;20.42;6.57;;;5.60;93.00;;;;;;5005290;28;20032;-83
2022/05/15 02:27:34;;;;;;;22.45;7.22;;;5.60;93.10;;;;;;4992110;28;20026;-85
2022/05/15 02:30:01;;;;;;;21.45;6.82;;;5.60;93.10;;;;;;5006552;28;20105;-83
2022/05/15 02:32:26;;;;;;;16.88;6.43;;;5.60;93.10;;;;;;5004844;28;20045;-83
2022/05/15 02:34:53;;;;;;;23.27;7.20;;;5.60;93.10;;;;;;4993091;28;20026;-83
2022/05/15 02:37:18;;;;;;;21.30;6.95;;;5.60;93.10;;;;;;4993760;28;20045;-83
2022/05/15 02:39:44;;;;;;;22.83;7.47;;;5.60;93.20;;;;;;4990267;28;20030;-83
2022/05/15 02:42:10;;;;;;;16.40;6.70;;;5.60;93.30;;;;;;4993699;28;20389;-83
2022/05/15 02:44:36;;;;;;;23.83;7.22;;;5.60;93.10;;;;;;5006194;28;20381;-84
2022/05/15 02:47:03;;;;;;;20.10;8.48;;;5.60;93.40;;;;;;4989370;28;20180;-83
2022/05/15 02:52:13;;;;;;;17.25;6.95;;;5.50;93.30;;;;;;5008148;28;20048;-84
2022/05/15 02:54:38;;;;;;;15.02;7.35;;;5.50;93.20;;;;;;4988908;28;20128;-83
2022/05/15 02:57:06;;;;;;;17.70;6.82;;;5.50;93.30;;;;;;5012266;28;20111;-84
2022/05/15 02:59:33;;;;;;;24.45;7.35;;;5.50;93.30;;;;;;4993928;28;20080;-84
2022/05/15 03:01:59;;;;;;;19.92;6.88;;;5.50;93.30;;;;;;4990560;28;20058;-83
2022/05/15 03:04:24;;;;;;;16.63;6.65;;;5.50;93.40;;;;;;5002698;28;20469;-83
2022/05/15 03:06:50;;;;;;;18.40;6.32;;;5.40;93.30;;;;;;5011833;28;20037;-84
2022/05/15 03:09:15;;;;;;;15.63;6.60;;;5.40;93.30;;;;;;5004344;28;20039;-83
2022/05/15 03:11:41;;;;;;;19.08;7.63;;;5.40;93.20;;;;;;5019994;28;20038;-83
2022/05/15 03:14:07;;;;;;;15.50;7.22;;;5.30;93.20;;;;;;5032402;28;20033;-83
2022/05/15 03:16:32;;;;;;;15.63;7.20;;;5.40;93.30;;;;;;4998166;28;20033;-83
2022/05/15 03:18:58;;;;;;;15.85;7.63;;;5.40;93.40;;;;;;4995989;28;20036;-84
2022/05/15 03:21:29;;;;;;;18.08;7.05;;;5.40;93.40;;;;;;5007195;28;20031;-83
2022/05/15 03:23:57;;;;;;;21.67;7.80;;;5.40;93.30;;;;;;5010383;28;20478;-83
2022/05/15 03:26:23;;;;;;;18.42;7.50;;;5.30;93.30;;;;;;5008795;28;20014;-84
2022/05/15 03:28:49;;;;;;;23.30;7.85;;;5.30;93.30;;;;;;4993461;28;20041;-83
2022/05/15 03:31:15;;;;;;;18.38;7.60;;;5.30;93.30;;;;;;5003164;28;20033;-84
2022/05/15 03:33:41;;;;;;;23.58;7.05;;;5.30;93.30;;;;;;5009406;28;20042;-83
2022/05/15 03:36:10;;;;;;;22.33;6.90;;;5.30;93.10;;;;;;4992177;28;20542;-83
2022/05/15 03:38:37;;;;;;;18.42;8.90;;;5.30;93.00;;;;;;5013894;28;20034;-83
2022/05/15 03:41:03;;;;;;;24.67;8.50;;;5.30;93.10;;;;;;4994464;28;20481;-84
2022/05/15 03:43:28;;;;;;;21.10;8.82;;;5.30;93.20;;;;;;5011675;28;20030;-83
2022/05/15 03:45:54;;;;;;;24.50;7.82;;;5.30;93.10;;;;;;5009523;28;20026;-83
2022/05/15 03:48:19;;;;;;;24.83;7.68;;;5.30;93.10;;;;;;5009032;28;20041;-84
2022/05/15 03:50:45;;;;;;;24.15;8.52;;;5.30;93.10;;;;;;5012647;28;20029;-83
2022/05/15 03:53:11;;;;;;;20.23;8.93;;;5.40;93.20;;;;;;5006808;28;20504;-84
2022/05/15 03:55:36;;;;;;;17.67;7.55;;;5.40;93.20;;;;;;5009285;28;20121;-83
2022/05/15 03:58:02;;;;;;;22.38;8.65;;;5.50;93.30;;;;;;5005676;28;20060;-83
2022/05/15 04:00:28;;;;;;;25.15;8.60;;;5.60;93.40;;;;;;5005210;28;20517;-83
2022/05/15 04:02:54;;;;;;;22.38;9.38;;;5.60;93.40;;;;;;5017980;28;20108;-84
2022/05/15 04:05:20;;;;;;;19.88;8.52;;;5.70;93.50;;;;;;5010988;28;20034;-84
2022/05/15 04:07:48;;;;;;;21.85;8.15;;;5.80;93.60;;;;;;4993855;28;20513;-84
2022/05/15 04:10:15;;;;;;;16.67;7.22;;;5.90;93.70;;;;;;5011549;28;20136;-84
2022/05/15 04:12:43;;;;;;;21.58;8.02;;;6.10;93.70;;;;;;5010488;28;20127;-84
2022/05/15 04:15:10;;;;;;;27.23;8.52;;;6.20;93.80;;;;;;4989477;28;20037;-83
2022/05/15 04:17:44;;;;;;;34.22;9.10;;;6.30;93.70;;;;;;5006617;28;20123;-83
2022/05/15 04:20:11;;;;;;;26.30;9.45;;;6.50;93.50;;;;;;5017010;28;20098;-83
2022/05/15 04:22:36;;;;;;;30.48;9.45;;;6.50;93.40;;;;;;5000150;28;20025;-83
2022/05/15 04:25:02;;;;;;;37.83;9.27;;;6.70;93.50;;;;;;4997091;28;20034;-83
2022/05/15 04:27:28;;;;;;;35.80;10.70;;;6.80;93.50;;;;;;4993701;28;20092;-83
2022/05/15 04:29:53;;;;;;;43.55;11.00;;;6.90;93.40;;;;;;4999286;28;20026;-83
2022/05/15 04:32:19;;;;;;;45.03;11.90;;;7.00;93.40;;;;;;5005410;28;20026;-84
2022/05/15 04:34:44;;;;;;;42.80;12.27;;;7.10;93.40;;;;;;5007170;28;20089;-84
2022/05/15 04:37:10;;;;;;;46.85;12.15;;;7.10;93.50;;;;;;5006198;28;20026;-84
2022/05/15 04:39:36;;;;;;;49.30;13.23;;;7.10;93.60;;;;;;5007821;28;20587;-84
2022/05/15 04:42:02;;;;;;;39.90;11.45;;;7.10;93.70;;;;;;5008205;28;20087;-85
2022/05/15 04:44:27;;;;;;;36.70;11.60;;;7.10;93.80;;;;;;4995509;28;20029;-84
2022/05/15 04:46:53;;;;;;;35.75;11.45;;;7.10;93.80;;;;;;4993526;28;20037;-83
2022/05/15 04:49:18;;;;;;;35.45;10.98;;;7.10;94.00;;;;;;4993135;28;20029;-84
2022/05/15 04:51:44;;;;;;;32.03;11.73;;;7.20;94.10;;;;;;4991935;28;21046;-84
2022/05/15 04:54:10;;;;;;;30.42;11.50;;;7.20;94.10;;;;;;4991400;28;20515;-84
2022/05/15 04:56:35;;;;;;;31.33;13.27;;;7.30;94.30;;;;;;4993162;28;20069;-85
2022/05/15 04:59:01;;;;;;;27.48;11.80;;;7.40;94.30;;;;;;4991655;28;20057;-84
2022/05/15 05:01:27;;;;;;;22.10;12.70;;;7.50;94.40;;;;;;4997158;28;20493;-85
2022/05/15 05:03:57;;;;;;;26.27;11.80;;;7.50;94.30;;;;;;4991024;28;20033;-83
2022/05/15 05:06:24;;;;;;;27.65;11.82;;;7.50;94.30;;;;;;5010826;28;20540;-84
2022/05/15 05:08:50;;;;;;;21.33;11.35;;;7.50;94.40;;;;;;5011531;28;20026;-84
2022/05/15 05:11:18;;;;;;;18.77;11.00;;;7.60;94.50;;;;;;5011326;28;20037;-84
2022/05/15 05:13:44;;;;;;;18.50;10.90;;;7.60;94.50;;;;;;5009314;28;20040;-84
2022/05/15 05:16:10;;;;;;;22.67;11.85;;;7.70;94.50;;;;;;4989301;28;20027;-85
2022/05/15 05:18:35;;;;;;;19.83;11.63;;;7.70;94.50;;;;;;5004019;28;20473;-84
2022/05/15 05:21:04;;;;;;;15.43;10.23;;;7.80;94.50;;;;;;4993321;28;20044;-84
2022/05/15 05:23:29;;;;;;;19.25;11.38;;;7.80;94.50;;;;;;5008841;28;20377;-84
2022/05/15 05:25:55;;;;;;;21.23;10.82;;;7.90;94.50;;;;;;5006501;28;20156;-84
2022/05/15 05:28:21;;;;;;;21.10;11.30;;;8.00;94.50;;;;;;5001409;28;20026;-83
2022/05/15 05:30:49;;;;;;;21.10;11.85;;;8.10;94.40;;;;;;4992485;28;20065;-84
2022/05/15 05:33:15;;;;;;;18.30;11.63;;;8.20;94.40;;;;;;5008090;28;20022;-84
2022/05/15 05:35:41;;;;;;;21.58;11.57;;;8.30;94.30;;;;;;5014479;28;20112;-84
2022/05/15 05:38:10;;;;;;;25.00;12.20;;;8.50;94.30;;;;;;4991335;28;22254;-84
2022/05/15 05:40:36;;;;;;;26.67;12.18;;;8.80;94.50;;;;;;5010954;28;20023;-84
2022/05/15 05:43:01;;;;;;;31.05;13.05;;;9.00;94.50;;;;;;5012807;28;20103;-84
2022/05/15 05:45:28;;;;;;;29.73;13.40;;;9.20;94.40;;;;;;4994483;28;20095;-84
2022/05/15 05:47:55;;;;;;;27.80;12.60;;;9.30;94.30;;;;;;4992129;28;20037;-84
2022/05/15 05:50:25;;;;;;;27.60;12.57;;;9.40;94.20;;;;;;5003735;28;20547;-84
2022/05/15 05:52:51;;;;;;;26.58;12.10;;;9.60;94.10;;;;;;5010021;28;20037;-83
2022/05/15 05:55:18;;;;;;;26.20;12.50;;;9.70;94.10;;;;;;4992190;28;20550;-85
2022/05/15 05:57:44;;;;;;;24.83;12.20;;;9.90;94.00;;;;;;4995294;28;20050;-85
2022/05/15 06:00:17;;;;;;;26.77;10.50;;;10.00;93.80;;;;;;5001315;28;20481;-85
2022/05/15 06:02:42;;;;;;;25.20;9.75;;;10.20;93.80;;;;;;4991828;28;20061;-85
2022/05/15 06:05:08;;;;;;;26.95;10.60;;;10.50;93.50;;;;;;5010500;28;20049;-84
2022/05/15 06:07:35;;;;;;;27.90;9.02;;;10.60;93.30;;;;;;5009711;28;20037;-85
2022/05/15 06:10:03;;;;;;;25.08;9.13;;;10.80;92.90;;;;;;4988564;28;20035;-85
2022/05/15 06:12:28;;;;;;;19.92;9.40;;;11.00;92.60;;;;;;5009150;28;20037;-85
2022/05/15 06:14:53;;;;;;;21.40;8.63;;;11.10;92.20;;;;;;5007097;28;20497;-84
2022/05/15 06:17:21;;;;;;;22.75;7.53;;;11.30;92.10;;;;;;5004003;28;20057;-84
2022/05/15 06:19:47;;;;;;;14.50;7.25;;;11.40;91.60;;;;;;5009259;28;20141;-84
2022/05/15 06:22:12;;;;;;;20.13;7.45;;;11.40;91.20;;;;;;4992284;28;20112;-84
2022/05/15 06:24:38;;;;;;;18.08;7.30;;;11.60;90.70;;;;;;5008991;28;20153;-84
2022/05/15 06:27:04;;;;;;;17.75;8.05;;;12.00;90.60;;;;;;4997600;28;20076;-84
2022/05/15 06:29:31;;;;;;;15.50;6.88;;;12.20;90.40;;;;;;4995683;28;21075;-84
2022/05/15 06:31:57;;;;;;;13.80;5.85;;;12.30;89.40;;;;;;5011755;28;20034;-85
2022/05/15 06:34:22;;;;;;;19.55;6.03;;;12.50;89.00;;;;;;5008139;28;20049;-84
2022/05/15 06:36:48;;;;;;;15.38;5.40;;;12.60;88.10;;;;;;5006357;28;20034;-85
2022/05/15 06:39:14;;;;;;;15.93;4.97;;;12.80;86.70;;;;;;4995297;28;20121;-85
2022/05/15 06:41:39;;;;;;;13.88;4.97;;;13.00;86.30;;;;;;5009594;28;20492;-86
2022/05/15 06:44:05;;;;;;;20.52;5.20;;;13.10;85.60;;;;;;4995161;28;20513;-84
2022/05/15 06:46:31;;;;;;;15.57;5.10;;;13.30;84.80;;;;;;5003561;28;20500;-84
2022/05/15 06:48:56;;;;;;;19.05;4.82;;;13.30;82.70;;;;;;5013078;28;20038;-85
2022/05/15 06:51:22;;;;;;;9.70;3.95;;;13.60;83.30;;;;;;4989602;28;20025;-84
2022/05/15 06:53:48;;;;;;;15.85;4.13;;;13.70;81.40;;;;;;5007826;28;20161;-85
2022/05/15 06:59:00;;;;;;;12.45;3.63;;;14.00;80.90;;;;;;5011385;28;20044;-84
2022/05/15 07:01:25;;;;;;;10.98;3.95;;;14.10;78.70;;;;;;5008946;28;20025;-84
2022/05/15 07:03:51;;;;;;;8.93;3.28;;;14.40;77.20;;;;;;5022625;28;20037;-85
2022/05/15 07:06:16;;;;;;;12.63;3.47;;;14.70;78.50;;;;;;4994751;28;20547;-85
2022/05/15 07:08:42;;;;;;;7.53;2.90;;;14.70;76.50;;;;;;4996119;28;20527;-85
2022/05/15 07:11:10;;;;;;;7.07;2.60;;;14.80;73.80;;;;;;4995036;28;20063;-85
2022/05/15 07:13:35;;;;;;;8.25;2.55;;;14.90;75.40;;;;;;4995394;28;20022;-85
2022/05/15 07:16:01;;;;;;;6.45;2.00;;;15.00;70.20;;;;;;5024509;28;20043;-85
2022/05/15 07:18:27;;;;;;;9.40;1.77;;;14.80;69.90;;;;;;5014922;28;20045;-84
2022/05/15 07:20:52;;;;;;;9.68;2.60;;;14.90;65.90;;;;;;5009396;28;20866;-84
2022/05/15 07:23:19;;;;;;;11.93;2.78;;;15.00;68.20;;;;;;4995896;28;20646;-85
2022/05/15 07:25:45;;;;;;;7.70;2.15;;;15.30;70.40;;;;;;5009836;28;20026;-85
2022/05/15 07:28:11;;;;;;;10.82;2.50;;;15.60;69.80;;;;;;5002177;28;20044;-85
2022/05/15 07:30:38;;;;;;;14.48;2.15;;;16.00;69.60;;;;;;5010515;28;20405;-84
2022/05/15 07:33:03;;;;;;;9.50;2.30;;;16.00;67.60;;;;;;5011748;28;20454;-85
2022/05/15 07:35:29;;;;;;;5.30;2.00;;;16.10;68.00;;;;;;5009478;28;20033;-85
2022/05/15 07:37:55;;;;;;;5.60;1.50;;;16.00;65.90;;;;;;4996481;28;20026;-85
2022/05/15 07:40:21;;;;;;;7.90;2.13;;;16.10;64.30;;;;;;4990708;28;20018;-85
2022/05/15 07:42:47;;;;;;;6.60;1.52;;;16.20;62.70;;;;;;4985916;28;20069;-85
2022/05/15 07:45:13;;;;;;;8.13;1.48;;;16.40;60.80;;;;;;5016992;28;20061;-85
2022/05/15 07:47:39;;;;;;;4.97;1.38;;;16.60;61.00;;;;;;4993897;28;20457;-86
2022/05/15 07:50:06;;;;;;;6.15;1.80;;;16.70;59.50;;;;;;4995486;28;20088;-86
2022/05/15 07:52:32;;;;;;;4.55;1.27;;;17.10;60.80;;;;;;5006174;28;20030;-85
2022/05/15 07:54:57;;;;;;;3.63;1.40;;;17.30;58.60;;;;;;5008232;28;20033;-85
2022/05/15 07:57:23;;;;;;;3.80;1.50;;;17.10;58.30;;;;;;4995262;28;20034;-86
2022/05/15 07:59:49;;;;;;;5.63;1.60;;;17.50;57.40;;;;;;5008262;28;20485;-86
2022/05/15 08:02:14;;;;;;;5.38;1.35;;;17.50;56.90;;;;;;4992212;28;20032;-87
2022/05/15 08:10:10;;;;;;;7.03;1.92;;;17.50;57.20;;;;;;5000191;28;20137;-86
2022/05/15 08:12:35;;;;;;;8.48;1.50;;;18.00;57.50;;;;;;5005183;28;20156;-86
2022/05/15 08:15:05;;;;;;;6.93;1.48;;;18.20;53.30;;;;;;5010195;28;20152;-86
2022/05/15 08:17:31;;;;;;;4.25;1.05;;;17.50;49.80;;;;;;4993226;28;20025;-86
2022/05/15 08:25:26;;;;;;;5.90;1.63;;;18.00;53.30;;;;;;5005990;28;20535;-86
2022/05/15 08:27:51;;;;;;;7.45;1.55;;;18.20;53.50;;;;;;4990059;28;20037;-87
2022/05/15 08:30:17;;;;;;;3.95;1.35;;;18.60;51.10;;;;;;4989200;28;20120;-86
2022/05/15 08:32:43;;;;;;;5.43;1.70;;;18.30;51.40;;;;;;4995008;28;20053;-86
2022/05/15 08:35:09;;;;;;;7.18;1.33;;;18.60;52.30;;;;;;5000680;28;20048;-86
2022/05/15 08:37:34;;;;;;;6.60;1.63;;;18.50;51.10;;;;;;4991553;28;20029;-86
2022/05/15 08:40:00;;;;;;;4.72;1.60;;;18.30;47.80;;;;;;4990665;28;20785;-86
2022/05/15 08:42:46;;;;;;;7.00;1.52;;;18.90;48.20;;;;;;4991642;28;20037;-85
2022/05/15 08:45:15;;;;;;;6.13;1.65;;;18.20;48.50;;;;;;4989965;28;20026;-86
2022/05/15 08:47:44;;;;;;;4.05;1.48;;;18.60;49.80;;;;;;4992332;28;20026;-86
2022/05/15 08:50:20;;;;;;;4.72;1.25;;;18.80;47.30;;;;;;5007569;28;20030;-88
2022/05/15 08:53:04;;;;;;;3.40;1.30;;;18.70;48.50;;;;;;5019807;28;20062;-86
2022/05/15 08:55:39;;;;;;;7.15;1.48;;;19.30;47.40;;;;;;5010449;28;20481;-86
2022/05/15 08:58:24;;;;;;;4.07;1.27;;;19.00;47.10;;;;;;4995899;28;20030;-85
2022/05/15 09:00:51;;;;;;;3.45;1.10;;;19.00;46.30;;;;;;4993824;28;20022;-86
2022/05/15 09:03:19;;;;;;;6.25;1.38;;;19.00;45.30;;;;;;5016113;28;20572;-86
2022/05/15 09:06:04;;;;;;;4.80;1.33;;;19.70;46.20;;;;;;5008697;28;20441;-86
2022/05/15 09:08:54;;;;;;;5.38;1.52;;;19.40;45.80;;;;;;4996093;28;20036;-86
2022/05/15 09:11:38;;;;;;;4.10;1.10;;;19.10;46.30;;;;;;5009135;28;20029;-87
2022/05/15 09:14:31;;;;;;;4.82;1.60;;;19.70;44.80;;;;;;5012489;28;20030;-87
2022/05/15 09:17:03;;;;;;;7.15;1.50;;;20.00;43.40;;;;;;4993478;28;20030;-87
2022/05/15 09:19:28;;;;;;;3.53;1.30;;;19.50;44.40;;;;;;4995130;28;20034;-87
2022/05/15 09:21:59;;;;;;;3.75;1.27;;;19.90;44.70;;;;;;4993813;28;20022;-87
2022/05/15 09:24:47;;;;;;;3.92;1.15;;;20.10;45.10;;;;;;5029612;28;20057;-84
2022/05/15 09:27:20;;;;;;;4.72;1.35;;;20.70;43.80;;;;;;5026241;28;20030;-84
2022/05/15 09:29:57;;;;;;;4.40;1.10;;;20.00;43.70;;;;;;5008965;28;20524;-85
2022/05/15 09:32:44;;;;;;;3.20;1.20;;;20.40;43.70;;;;;;4989527;28;20022;-84
2022/05/15 09:35:28;;;;;;;5.22;1.50;;;20.60;46.20;;;;;;5008827;28;20543;-84
2022/05/15 09:43:41;;;;;;;3.42;1.27;;;21.10;46.70;;;;;;5007871;28;20647;-84
2022/05/15 09:46:18;;;;;;;5.03;1.60;;;21.00;42.20;;;;;;4988713;28;20116;-85
2022/05/15 09:49:16;;;;;;;3.10;1.40;;;21.10;43.20;;;;;;5010558;28;20574;-85
2022/05/15 09:51:53;;;;;;;4.45;1.50;;;21.60;45.30;;;;;;5000603;28;20382;-84
2022/05/15 09:54:42;;;;;;;5.15;1.58;;;21.40;44.00;;;;;;5005178;28;20042;-85
2022/05/15 09:57:20;;;;;;;6.38;1.50;;;21.20;44.30;;;;;;4992380;28;20489;-85
2022/05/15 09:59:59;;;;;;;4.05;1.60;;;21.60;42.70;;;;;;5008735;28;20535;-85
2022/05/15 10:02:42;;;;;;;4.40;1.48;;;21.50;42.30;;;;;;5003835;28;20030;-85
2022/05/15 10:05:19;;;;;;;3.63;1.30;;;21.40;41.40;;;;;;4996870;28;20026;-85
2022/05/15 10:08:10;;;;;;;3.78;1.42;;;20.90;45.40;;;;;;5000847;28;20036;-84
2022/05/15 10:10:45;;;;;;;5.95;1.48;;;21.20;46.10;;;;;;4994131;28;20030;-84
2022/05/15 10:13:26;;;;;;;4.38;1.63;;;21.00;44.40;;;;;;5017681;28;20041;-85
2022/05/15 10:15:57;;;;;;;2.28;1.10;;;21.80;44.30;;;;;;5004345;28;20527;-85
2022/05/15 10:18:25;;;;;;;;;;;22.40;41.80;;;;;;5016777;28;20034;-87
2022/05/15 10:20:52;;;;;;;3.45;1.30;;;22.30;44.60;;;;;;5017062;28;20460;-84
2022/05/15 10:23:25;;;;;;;5.60;1.27;;;22.00;41.00;;;;;;5006524;28;20164;-86
2022/05/15 10:26:11;;;;;;;6.97;1.35;;;22.30;41.70;;;;;;5009301;28;20053;-84
2022/05/15 10:28:59;;;;;;;5.90;1.70;;;22.30;43.00;;;;;;5015779;28;20057;-84
2022/05/15 10:31:30;;;;;;;3.05;1.45;;;22.20;41.80;;;;;;5013118;28;20524;-84
2022/05/15 10:34:00;;;;;;;5.72;1.67;;;21.90;43.10;;;;;;5022551;28;20073;-84
2022/05/15 10:36:44;;;;;;;6.78;1.65;;;21.10;43.50;;;;;;5022000;28;20030;-84
2022/05/15 10:39:38;;;;;;;3.72;1.35;;;21.80;42.40;;;;;;5022209;28;20029;-84
2022/05/15 10:42:13;;;;;;;5.50;1.52;;;22.20;43.70;;;;;;5022135;28;20090;-83
2022/05/15 10:45:04;;;;;;;5.20;1.30;;;21.50;42.10;;;;;;5021658;28;20025;-83
2022/05/15 10:47:49;;;;;;;3.70;1.38;;;21.50;41.40;;;;;;5023251;28;20018;-83
2022/05/15 10:50:38;;;;;;;5.07;1.73;;;22.30;38.90;;;;;;5022411;28;20047;-84
2022/05/15 11:00:03;;;;;;;3.38;1.30;;;23.20;41.80;;;;;;5019022;28;20047;-81
2022/05/15 11:02:56;;;;;;;6.53;1.45;;;23.20;40.20;;;;;;5017207;28;20500;-81
2022/05/15 11:05:31;;;;;;;4.57;1.42;;;23.30;41.20;;;;;;5018922;28;20053;-81
2022/05/15 11:08:05;;;;;;;4.22;1.42;;;23.90;40.00;;;;;;5018135;28;20041;-81
2022/05/15 11:10:44;;;;;;;3.47;1.27;;;23.90;39.40;;;;;;5025868;28;20026;-81
2022/05/15 11:13:19;;;;;;;6.05;1.30;;;22.30;39.10;;;;;;5024036;28;20026;-81
2022/05/15 11:16:05;;;;;;;2.05;1.00;;;22.30;39.90;;;;;;5022512;28;20125;-81
2022/05/15 11:18:59;;;;;;;3.47;1.23;;;23.00;40.00;;;;;;5019668;28;20045;-82
2022/05/15 11:21:35;;;;;;;5.97;1.50;;;23.50;39.40;;;;;;5016346;28;20053;-81
2022/05/15 11:24:12;;;;;;;2.30;0.80;;;23.30;38.70;;;;;;5020594;28;20393;-81
2022/05/15 11:26:43;;;;;;;3.92;1.20;;;23.80;37.70;;;;;;5020212;28;20026;-81
2022/05/15 11:29:13;;;;;;;3.38;1.38;;;23.70;36.90;;;;;;5005372;28;20026;-81
2022/05/15 11:31:45;;;;;;;3.63;1.10;;;23.90;38.00;;;;;;5020848;28;20050;-81
2022/05/15 11:34:11;;;;;;;4.35;1.40;;;24.00;37.80;;;;;;5000590;28;20085;-81
2022/05/15 11:36:45;;;;;;;3.63;1.48;;;23.60;37.60;;;;;;5009575;28;20560;-81
2022/05/15 11:39:14;;;;;;;6.05;1.65;;;23.80;37.40;;;;;;5017589;28;20133;-81
2022/05/15 11:41:42;;;;;;;4.50;1.60;;;24.40;37.80;;;;;;5011221;28;20034;-82
2022/05/15 11:44:12;;;;;;;4.47;1.10;;;25.10;37.60;;;;;;5018637;28;20038;-82
2022/05/15 11:46:47;;;;;;;3.17;1.30;;;25.00;37.20;;;;;;5013478;28;20026;-81
2022/05/15 11:49:25;;;;;;;5.18;1.52;;;25.00;35.70;;;;;;5020794;28;20030;-81
2022/05/15 11:52:06;;;;;;;4.70;1.48;;;25.00;34.90;;;;;;5000693;28;20041;-81
2022/05/15 11:54:59;;;;;;;4.97;1.23;;;24.50;35.40;;;;;;5013668;28;20046;-81
2022/05/15 11:57:43;;;;;;;2.65;1.10;;;25.00;34.20;;;;;;5001131;28;20033;-81
2022/05/15 12:00:20;;;;;;;4.88;1.10;;;24.90;35.60;;;;;;5003101;28;20113;-81
2022/05/15 12:02:54;;;;;;;5.03;0.90;;;25.40;33.70;;;;;;5006809;28;20033;-81
2022/05/15 12:05:57;;;;;;;1.95;1.00;;;24.80;35.70;;;;;;4996648;28;20109;-82
2022/05/15 12:08:25;;;;;;;7.43;1.45;;;25.70;34.80;;;;;;5007629;28;20026;-82
2022/05/15 12:10:57;;;;;;;3.78;0.98;;;25.60;35.00;;;;;;5011794;28;20030;-82
2022/05/15 12:13:33;;;;;;;3.17;1.02;;;26.20;33.40;;;;;;4996450;28;20060;-82
2022/05/15 12:16:33;;;;;;;2.70;1.10;;;26.60;32.50;;;;;;5013344;28;20025;-82
2022/05/15 12:19:03;;;;;;;2.97;1.27;;;26.50;33.10;;;;;;5017065;28;20054;-82
2022/05/15 12:21:36;;;;;;;3.65;1.20;;;26.30;32.40;;;;;;5011415;28;20052;-82
2022/05/15 12:26:56;;;;;;;5.53;1.30;;;26.60;32.50;;;;;;5016660;28;20038;-81
2022/05/15 12:29:41;;;;;;;4.20;1.40;;;26.60;32.50;;;;;;5013373;28;20029;-81
2022/05/15 12:32:12;;;;;;;2.30;1.00;;;26.40;32.40;;;;;;5014808;28;20027;-81
2022/05/15 12:34:46;;;;;;;6.30;1.45;;;26.90;32.40;;;;;;5015214;28;20101;-81
2022/05/15 12:37:18;;;;;;;2.72;1.23;;;27.00;32.00;;;;;;5013024;28;20022;-81
2022/05/15 12:39:48;;;;;;;4.45;1.08;;;26.70;32.90;;;;;;5001053;28;20132;-83
2022/05/15 12:42:35;;;;;;;4.72;1.20;;;26.70;32.20;;;;;;5007875;28;20493;-82
2022/05/15 12:45:11;;;;;;;4.68;1.15;;;26.60;31.90;;;;;;5014110;28;20041;-82
2022/05/15 12:47:38;;;;;;;2.53;1.02;;;27.30;34.40;;;;;;4995768;28;20030;-82
2022/05/15 12:50:14;;;;;;;3.08;1.30;;;26.50;31.20;;;;;;5014830;28;20033;-82
2022/05/15 12:52:40;;;;;;;4.47;1.17;;;26.40;32.40;;;;;;4994580;28;20056;-82
2022/05/15 12:55:29;;;;;;;3.35;1.10;;;27.00;31.00;;;;;;5012429;28;20017;-82
2022/05/15 12:57:57;;;;;;;3.30;1.30;;;28.10;32.10;;;;;;5014834;28;20026;-82
2022/05/15 13:00:31;;;;;;;4.93;1.23;;;28.00;30.30;;;;;;5009586;28;20277;-82
2022/05/15 13:02:59;;;;;;;2.00;1.00;;;28.30;29.90;;;;;;5003452;28;20030;-83
2022/05/15 13:05:31;;;;;;;3.42;1.10;;;28.30;29.70;;;;;;5003923;28;20031;-83
2022/05/15 13:08:00;;;;;;;2.85;1.00;;;28.50;30.40;;;;;;5014183;28;20041;-82
2022/05/15 13:10:27;;;;;;;7.00;1.23;;;28.60;30.50;;;;;;5012220;28;20072;-82
2022/05/15 13:13:12;;;;;;;5.18;1.38;;;28.90;29.90;;;;;;5012140;28;20030;-82
2022/05/15 13:15:39;;;;;;;4.18;1.30;;;29.10;28.00;;;;;;5007703;28;20060;-82
2022/05/15 13:18:09;;;;;;;3.15;1.10;;;29.00;28.90;;;;;;5007449;28;20053;-82
2022/05/15 13:20:47;;;;;;;4.47;1.10;;;29.60;26.90;;;;;;4997755;28;20458;-82
2022/05/15 13:23:13;;;;;;;3.58;1.10;;;28.20;27.90;;;;;;5011842;28;20087;-83
2022/05/15 13:25:42;;;;;;;3.53;1.33;;;29.80;28.20;;;;;;5013549;28;20064;-82
2022/05/15 13:28:08;;;;;;;3.03;0.90;;;28.70;27.70;;;;;;5001190;28;20028;-82
2022/05/15 13:30:35;;;;;;;2.92;1.10;;;28.60;28.70;;;;;;5011274;28;20572;-82
2022/05/15 13:33:09;;;;;;;2.88;1.10;;;29.00;28.70;;;;;;5010322;28;20029;-82